sensor_id;sensor_type;location;lat;lon;timestamp;pressure;altitude;pressure_sealevel;temperature;humidity
24230;BME280;12362;50.004;8.006;2022-09-09T00:02:00;100021.31;;;15.67;100.00
24230;BME280;12362;50.004;8.006;2022-09-09T00:07:47;100019.44;;;15.46;100.00
24230;BME280;12362;50.004;8.006;2022-09-09T00:10:34;100013.97;;;15.38;100.00
24230;BME280;12362;50.004;8.006;2022-09-09T00:13:22;100010.75;;;15.35;100.00
24230;BME280;12362;50.004;8.006;2022-09-09T00:21:53;100012.75;;;15.31;100.00
24230;BME280;12362;50.004;8.006;2022-09-09T00:24:39;100000.72;;;15.29;100.00
24230;BME280;12362;50.004;8.006;2022-09-09T00:27:31;100006.13;;;15.15;100.00
24230;BME280;12362;50.004;8.006;2022-09-09T00:30:14;100001.84;;;15.14;100.00
24230;BME280;12362;50.004;8.006;2022-09-09T00:32:40;100012.19;;;15.15;100.00
24230;BME280;12362;50.004;8.006;2022-09-09T00:35:26;100002.78;;;14.89;100.00
24230;BME280;12362;50.004;8.006;2022-09-09T00:38:01;100014.41;;;14.85;100.00
24230;BME280;12362;50.004;8.006;2022-09-09T00:40:39;100002.56;;;14.92;100.00
24230;BME280;12362;50.004;8.006;2022-09-09T00:46:14;99996.59;;;14.90;100.00
24230;BME280;12362;50.004;8.006;2022-09-09T00:52:15;99999.63;;;14.73;100.00
24230;BME280;12362;50.004;8.006;2022-09-09T00:55:40;100005.16;;;14.69;100.00
24230;BME280;12362;50.004;8.006;2022-09-09T00:57:38;100008.59;;;14.69;100.00
24230;BME280;12362;50.004;8.006;2022-09-09T01:00:22;99999.66;;;14.61;100.00
24230;BME280;12362;50.004;8.006;2022-09-09T01:14:50;100014.13;;;14.42;100.00
24230;BME280;12362;50.004;8.006;2022-09-09T01:17:31;100007.34;;;14.39;100.00
24230;BME280;12362;50.004;8.006;2022-09-09T01:20:10;100001.50;;;14.36;100.00
24230;BME280;12362;50.004;8.006;2022-09-09T01:26:05;100004.59;;;14.41;100.00
24230;BME280;12362;50.004;8.006;2022-09-09T01:28:38;100002.53;;;14.33;100.00
24230;BME280;12362;50.004;8.006;2022-09-09T01:31:13;100002.44;;;14.35;100.00
24230;BME280;12362;50.004;8.006;2022-09-09T01:33:44;100006.41;;;14.40;100.00
24230;BME280;12362;50.004;8.006;2022-09-09T01:36:27;99999.63;;;14.38;100.00
24230;BME280;12362;50.004;8.006;2022-09-09T01:38:57;99995.34;;;14.37;100.00
24230;BME280;12362;50.004;8.006;2022-09-09T01:41:25;99990.00;;;14.38;100.00
24230;BME280;12362;50.004;8.006;2022-09-09T01:43:56;99995.22;;;14.38;100.00
24230;BME280;12362;50.004;8.006;2022-09-09T01:46:26;99999.09;;;14.33;100.00
24230;BME280;12362;50.004;8.006;2022-09-09T01:48:54;100004.53;;;14.30;100.00
24230;BME280;12362;50.004;8.006;2022-09-09T01:51:23;100007.94;;;14.43;100.00
24230;BME280;12362;50.004;8.006;2022-09-09T01:53:50;100011.75;;;14.39;100.00
24230;BME280;12362;50.004;8.006;2022-09-09T01:56:35;100015.06;;;14.41;100.00
24230;BME280;12362;50.004;8.006;2022-09-09T01:59:25;100024.03;;;14.49;100.00
24230;BME280;12362;50.004;8.006;2022-09-09T02:02:13;100021.22;;;14.40;100.00
24230;BME280;12362;50.004;8.006;2022-09-09T02:04:56;100033.88;;;14.33;100.00
24230;BME280;12362;50.004;8.006;2022-09-09T02:07:41;100028.66;;;14.33;100.00
24230;BME280;12362;50.004;8.006;2022-09-09T02:10:20;100032.31;;;14.31;100.00
24230;BME280;12362;50.004;8.006;2022-09-09T02:12:55;100032.53;;;14.28;100.00
24230;BME280;12362;50.004;8.006;2022-09-09T02:16:06;100032.63;;;14.26;100.00
24230;BME280;12362;50.004;8.006;2022-09-09T02:18:34;100029.63;;;14.20;100.00
24230;BME280;12362;50.004;8.006;2022-09-09T02:21:02;100026.59;;;14.13;100.00
24230;BME280;12362;50.004;8.006;2022-09-09T02:23:30;100023.31;;;14.10;100.00
24230;BME280;12362;50.004;8.006;2022-09-09T02:26:01;100017.25;;;14.09;100.00
24230;BME280;12362;50.004;8.006;2022-09-09T02:28:31;100021.53;;;14.10;100.00
24230;BME280;12362;50.004;8.006;2022-09-09T02:31:02;100020.84;;;14.08;100.00
24230;BME280;12362;50.004;8.006;2022-09-09T02:33:33;100006.94;;;14.08;100.00
24230;BME280;12362;50.004;8.006;2022-09-09T02:36:02;100004.13;;;14.11;100.00
24230;BME280;12362;50.004;8.006;2022-09-09T02:38:36;100009.47;;;14.22;100.00
24230;BME280;12362;50.004;8.006;2022-09-09T02:41:08;100003.38;;;14.34;100.00
24230;BME280;12362;50.004;8.006;2022-09-09T02:43:36;99998.97;;;14.47;100.00
24230;BME280;12362;50.004;8.006;2022-09-09T02:46:27;100001.78;;;14.56;100.00
24230;BME280;12362;50.004;8.006;2022-09-09T02:49:17;99991.53;;;14.41;100.00
24230;BME280;12362;50.004;8.006;2022-09-09T02:52:00;100000.13;;;14.43;100.00
24230;BME280;12362;50.004;8.006;2022-09-09T02:54:32;99996.69;;;14.42;100.00
24230;BME280;12362;50.004;8.006;2022-09-09T02:57:14;99987.66;;;14.46;100.00
24230;BME280;12362;50.004;8.006;2022-09-09T02:59:44;99985.56;;;14.51;100.00
24230;BME280;12362;50.004;8.006;2022-09-09T03:02:12;99986.72;;;14.47;100.00
24230;BME280;12362;50.004;8.006;2022-09-09T03:04:39;99977.28;;;14.57;100.00
24230;BME280;12362;50.004;8.006;2022-09-09T03:07:09;99978.34;;;14.54;100.00
24230;BME280;12362;50.004;8.006;2022-09-09T03:09:36;99990.78;;;14.51;100.00
24230;BME280;12362;50.004;8.006;2022-09-09T03:12:06;99990.47;;;14.55;100.00
24230;BME280;12362;50.004;8.006;2022-09-09T03:14:32;99995.09;;;14.52;100.00
24230;BME280;12362;50.004;8.006;2022-09-09T03:16:58;99993.94;;;14.56;100.00
24230;BME280;12362;50.004;8.006;2022-09-09T03:19:29;99997.91;;;14.49;100.00
24230;BME280;12362;50.004;8.006;2022-09-09T03:21:56;100000.63;;;14.48;100.00
24230;BME280;12362;50.004;8.006;2022-09-09T03:24:24;100006.59;;;14.50;100.00
24230;BME280;12362;50.004;8.006;2022-09-09T03:26:50;100007.47;;;14.61;100.00
24230;BME280;12362;50.004;8.006;2022-09-09T03:29:16;99996.53;;;14.56;100.00
24230;BME280;12362;50.004;8.006;2022-09-09T03:31:44;100009.16;;;14.62;100.00
24230;BME280;12362;50.004;8.006;2022-09-09T03:34:12;100001.50;;;14.71;100.00
24230;BME280;12362;50.004;8.006;2022-09-09T03:36:40;100002.78;;;14.66;100.00
24230;BME280;12362;50.004;8.006;2022-09-09T03:39:11;99992.00;;;14.58;100.00
24230;BME280;12362;50.004;8.006;2022-09-09T03:41:37;99997.75;;;14.63;100.00
24230;BME280;12362;50.004;8.006;2022-09-09T03:44:03;100002.66;;;14.67;100.00
24230;BME280;12362;50.004;8.006;2022-09-09T03:46:29;100004.94;;;14.72;100.00
24230;BME280;12362;50.004;8.006;2022-09-09T03:48:56;99999.38;;;14.76;100.00
24230;BME280;12362;50.004;8.006;2022-09-09T03:51:26;99992.06;;;14.81;100.00
24230;BME280;12362;50.004;8.006;2022-09-09T03:53:51;99986.47;;;14.86;100.00
24230;BME280;12362;50.004;8.006;2022-09-09T03:56:20;99989.81;;;14.88;100.00
24230;BME280;12362;50.004;8.006;2022-09-09T03:58:49;99978.50;;;14.87;100.00
24230;BME280;12362;50.004;8.006;2022-09-09T04:01:18;99973.69;;;14.94;100.00
24230;BME280;12362;50.004;8.006;2022-09-09T04:03:45;99971.78;;;14.96;100.00
24230;BME280;12362;50.004;8.006;2022-09-09T04:06:14;99967.75;;;14.92;100.00
24230;BME280;12362;50.004;8.006;2022-09-09T04:08:43;99965.97;;;14.92;100.00
24230;BME280;12362;50.004;8.006;2022-09-09T04:11:10;99977.22;;;14.93;100.00
24230;BME280;12362;50.004;8.006;2022-09-09T04:13:40;99982.97;;;14.98;100.00
24230;BME280;12362;50.004;8.006;2022-09-09T04:16:10;99968.63;;;15.03;100.00
24230;BME280;12362;50.004;8.006;2022-09-09T04:18:39;99982.53;;;15.04;100.00
24230;BME280;12362;50.004;8.006;2022-09-09T04:21:10;99983.16;;;15.07;100.00
24230;BME280;12362;50.004;8.006;2022-09-09T04:23:38;99986.09;;;15.03;100.00
24230;BME280;12362;50.004;8.006;2022-09-09T04:26:05;99980.88;;;15.03;100.00
24230;BME280;12362;50.004;8.006;2022-09-09T04:28:34;99977.31;;;15.04;100.00
24230;BME280;12362;50.004;8.006;2022-09-09T04:31:13;99979.84;;;14.93;100.00
24230;BME280;12362;50.004;8.006;2022-09-09T04:33:39;99999.94;;;14.92;100.00
24230;BME280;12362;50.004;8.006;2022-09-09T04:36:08;100001.06;;;15.01;100.00
24230;BME280;12362;50.004;8.006;2022-09-09T04:38:35;99997.72;;;14.99;100.00
24230;BME280;12362;50.004;8.006;2022-09-09T04:41:04;100004.88;;;15.08;100.00
24230;BME280;12362;50.004;8.006;2022-09-09T04:43:31;100000.50;;;15.08;100.00
24230;BME280;12362;50.004;8.006;2022-09-09T04:45:59;99996.81;;;15.11;100.00
24230;BME280;12362;50.004;8.006;2022-09-09T04:48:28;99993.47;;;15.09;100.00
24230;BME280;12362;50.004;8.006;2022-09-09T04:51:01;99996.78;;;15.00;100.00
24230;BME280;12362;50.004;8.006;2022-09-09T04:53:27;99997.38;;;15.03;100.00
24230;BME280;12362;50.004;8.006;2022-09-09T04:56:01;99989.88;;;14.99;100.00
24230;BME280;12362;50.004;8.006;2022-09-09T04:58:27;100001.94;;;14.89;100.00
24230;BME280;12362;50.004;8.006;2022-09-09T05:00:54;100004.84;;;14.73;100.00
24230;BME280;12362;50.004;8.006;2022-09-09T05:03:20;100005.28;;;14.67;100.00
24230;BME280;12362;50.004;8.006;2022-09-09T05:05:48;100015.44;;;14.59;100.00
24230;BME280;12362;50.004;8.006;2022-09-09T05:08:14;100015.44;;;14.59;100.00
24230;BME280;12362;50.004;8.006;2022-09-09T05:10:43;100022.50;;;14.70;100.00
24230;BME280;12362;50.004;8.006;2022-09-09T05:13:09;100025.63;;;14.75;100.00
24230;BME280;12362;50.004;8.006;2022-09-09T05:15:36;100018.06;;;14.83;100.00
24230;BME280;12362;50.004;8.006;2022-09-09T05:18:04;100021.19;;;14.88;100.00
24230;BME280;12362;50.004;8.006;2022-09-09T05:20:32;100026.22;;;14.91;100.00
24230;BME280;12362;50.004;8.006;2022-09-09T05:22:58;100021.25;;;14.99;100.00
24230;BME280;12362;50.004;8.006;2022-09-09T05:25:25;100025.06;;;15.06;100.00
24230;BME280;12362;50.004;8.006;2022-09-09T05:27:52;100016.06;;;15.10;100.00
24230;BME280;12362;50.004;8.006;2022-09-09T05:30:21;100025.63;;;15.22;100.00
24230;BME280;12362;50.004;8.006;2022-09-09T05:32:49;100016.19;;;15.32;100.00
24230;BME280;12362;50.004;8.006;2022-09-09T05:35:15;100016.56;;;15.38;100.00
24230;BME280;12362;50.004;8.006;2022-09-09T05:37:43;100024.00;;;15.44;100.00
24230;BME280;12362;50.004;8.006;2022-09-09T05:40:13;100024.59;;;15.48;100.00
24230;BME280;12362;50.004;8.006;2022-09-09T05:42:41;100013.19;;;15.48;100.00
24230;BME280;12362;50.004;8.006;2022-09-09T05:45:08;100018.16;;;15.51;100.00
24230;BME280;12362;50.004;8.006;2022-09-09T05:47:38;100022.34;;;15.54;100.00
24230;BME280;12362;50.004;8.006;2022-09-09T05:50:08;100022.00;;;15.58;100.00
24230;BME280;12362;50.004;8.006;2022-09-09T05:52:35;100033.19;;;15.60;100.00
24230;BME280;12362;50.004;8.006;2022-09-09T05:55:04;100026.91;;;15.74;100.00
24230;BME280;12362;50.004;8.006;2022-09-09T05:57:31;100019.66;;;15.77;100.00
24230;BME280;12362;50.004;8.006;2022-09-09T05:59:57;100027.44;;;15.90;100.00
24230;BME280;12362;50.004;8.006;2022-09-09T06:02:43;100029.44;;;15.86;100.00
24230;BME280;12362;50.004;8.006;2022-09-09T06:05:18;100031.94;;;15.99;100.00
24230;BME280;12362;50.004;8.006;2022-09-09T06:07:52;100034.22;;;16.03;100.00
24230;BME280;12362;50.004;8.006;2022-09-09T06:10:39;100035.44;;;16.10;100.00
24230;BME280;12362;50.004;8.006;2022-09-09T06:13:20;100035.06;;;16.26;100.00
24230;BME280;12362;50.004;8.006;2022-09-09T06:15:54;100042.75;;;16.40;100.00
24230;BME280;12362;50.004;8.006;2022-09-09T06:18:28;100037.22;;;16.53;100.00
24230;BME280;12362;50.004;8.006;2022-09-09T06:20:57;100032.84;;;16.54;100.00
24230;BME280;12362;50.004;8.006;2022-09-09T06:23:24;100037.72;;;16.47;100.00
24230;BME280;12362;50.004;8.006;2022-09-09T06:26:09;100030.78;;;16.57;100.00
24230;BME280;12362;50.004;8.006;2022-09-09T06:28:48;100025.19;;;16.62;100.00
24230;BME280;12362;50.004;8.006;2022-09-09T06:31:23;100033.78;;;16.53;100.00
24230;BME280;12362;50.004;8.006;2022-09-09T06:33:53;100033.41;;;16.57;100.00
24230;BME280;12362;50.004;8.006;2022-09-09T06:36:23;100027.44;;;16.66;100.00
24230;BME280;12362;50.004;8.006;2022-09-09T06:38:53;100026.13;;;16.72;100.00
24230;BME280;12362;50.004;8.006;2022-09-09T06:41:22;100026.22;;;16.81;100.00
24230;BME280;12362;50.004;8.006;2022-09-09T06:43:56;100018.41;;;17.13;100.00
24230;BME280;12362;50.004;8.006;2022-09-09T06:46:28;100017.38;;;17.35;100.00
24230;BME280;12362;50.004;8.006;2022-09-09T06:49:08;100023.88;;;17.10;100.00
24230;BME280;12362;50.004;8.006;2022-09-09T06:51:52;100019.53;;;16.99;100.00
24230;BME280;12362;50.004;8.006;2022-09-09T06:54:20;100026.06;;;17.05;100.00
24230;BME280;12362;50.004;8.006;2022-09-09T06:56:52;100025.00;;;16.96;100.00
24230;BME280;12362;50.004;8.006;2022-09-09T06:59:20;100026.78;;;16.96;100.00
24230;BME280;12362;50.004;8.006;2022-09-09T07:01:48;100024.34;;;17.15;100.00
24230;BME280;12362;50.004;8.006;2022-09-09T07:04:17;100026.34;;;17.33;100.00
24230;BME280;12362;50.004;8.006;2022-09-09T07:06:45;100029.41;;;17.27;100.00
24230;BME280;12362;50.004;8.006;2022-09-09T07:09:13;100031.94;;;17.39;100.00
24230;BME280;12362;50.004;8.006;2022-09-09T07:11:53;100038.63;;;17.33;100.00
24230;BME280;12362;50.004;8.006;2022-09-09T07:14:30;100036.00;;;17.33;100.00
24230;BME280;12362;50.004;8.006;2022-09-09T07:17:21;100045.41;;;17.24;100.00
24230;BME280;12362;50.004;8.006;2022-09-09T07:20:08;100042.69;;;17.26;100.00
24230;BME280;12362;50.004;8.006;2022-09-09T07:22:37;100039.28;;;17.45;100.00
24230;BME280;12362;50.004;8.006;2022-09-09T07:25:09;100042.63;;;17.68;100.00
24230;BME280;12362;50.004;8.006;2022-09-09T07:27:40;100039.25;;;17.77;100.00
24230;BME280;12362;50.004;8.006;2022-09-09T07:30:09;100036.03;;;17.73;100.00
24230;BME280;12362;50.004;8.006;2022-09-09T07:32:45;100041.47;;;17.81;100.00
24230;BME280;12362;50.004;8.006;2022-09-09T07:35:13;100036.53;;;17.88;100.00
24230;BME280;12362;50.004;8.006;2022-09-09T07:37:41;100036.16;;;17.72;100.00
24230;BME280;12362;50.004;8.006;2022-09-09T07:40:10;100031.22;;;17.78;100.00
24230;BME280;12362;50.004;8.006;2022-09-09T07:42:39;100042.69;;;17.98;100.00
24230;BME280;12362;50.004;8.006;2022-09-09T07:45:06;100041.66;;;17.89;100.00
24230;BME280;12362;50.004;8.006;2022-09-09T07:47:33;100043.84;;;17.84;100.00
24230;BME280;12362;50.004;8.006;2022-09-09T07:49:59;100041.47;;;18.02;100.00
24230;BME280;12362;50.004;8.006;2022-09-09T07:52:26;100039.22;;;18.18;100.00
24230;BME280;12362;50.004;8.006;2022-09-09T07:54:55;100035.28;;;18.12;100.00
24230;BME280;12362;50.004;8.006;2022-09-09T07:57:22;100039.25;;;18.07;100.00
24230;BME280;12362;50.004;8.006;2022-09-09T07:59:49;100043.81;;;18.25;100.00
24230;BME280;12362;50.004;8.006;2022-09-09T08:02:18;100055.03;;;18.27;100.00
24230;BME280;12362;50.004;8.006;2022-09-09T08:04:46;100055.31;;;18.24;100.00
24230;BME280;12362;50.004;8.006;2022-09-09T08:07:13;100059.47;;;18.27;100.00
24230;BME280;12362;50.004;8.006;2022-09-09T08:09:43;100052.56;;;18.26;100.00
24230;BME280;12362;50.004;8.006;2022-09-09T08:12:12;100060.66;;;18.43;100.00
24230;BME280;12362;50.004;8.006;2022-09-09T08:14:43;100055.06;;;18.66;100.00
24230;BME280;12362;50.004;8.006;2022-09-09T08:17:09;100062.19;;;18.85;100.00
24230;BME280;12362;50.004;8.006;2022-09-09T08:19:34;100064.47;;;19.08;100.00
24230;BME280;12362;50.004;8.006;2022-09-09T08:22:02;100065.97;;;19.01;100.00
24230;BME280;12362;50.004;8.006;2022-09-09T08:24:29;100068.72;;;18.90;100.00
24230;BME280;12362;50.004;8.006;2022-09-09T08:26:59;100070.72;;;18.68;100.00
24230;BME280;12362;50.004;8.006;2022-09-09T08:29:26;100070.84;;;18.66;100.00
24230;BME280;12362;50.004;8.006;2022-09-09T08:31:56;100063.84;;;18.86;100.00
24230;BME280;12362;50.004;8.006;2022-09-09T08:34:25;100065.00;;;19.02;100.00
24230;BME280;12362;50.004;8.006;2022-09-09T08:36:57;100067.09;;;19.08;100.00
24230;BME280;12362;50.004;8.006;2022-09-09T08:39:26;100070.88;;;19.15;100.00
24230;BME280;12362;50.004;8.006;2022-09-09T08:42:12;100061.31;;;19.23;100.00
24230;BME280;12362;50.004;8.006;2022-09-09T08:50:18;100082.38;;;19.23;100.00
24230;BME280;12362;50.004;8.006;2022-09-09T08:55:38;100082.44;;;19.99;100.00
24230;BME280;12362;50.004;8.006;2022-09-09T08:58:19;100076.13;;;21.18;100.00
24230;BME280;12362;50.004;8.006;2022-09-09T09:12:26;100068.06;;;20.20;100.00
24230;BME280;12362;50.004;8.006;2022-09-09T09:14:56;100070.41;;;20.33;100.00
24230;BME280;12362;50.004;8.006;2022-09-09T09:17:25;100068.03;;;21.03;100.00
24230;BME280;12362;50.004;8.006;2022-09-09T09:19:52;100072.97;;;20.88;100.00
24230;BME280;12362;50.004;8.006;2022-09-09T09:27:34;100053.50;;;22.70;100.00
24230;BME280;12362;50.004;8.006;2022-09-09T09:30:05;100057.44;;;22.07;100.00
24230;BME280;12362;50.004;8.006;2022-09-09T09:32:40;100063.34;;;20.60;100.00
24230;BME280;12362;50.004;8.006;2022-09-09T09:35:12;100070.91;;;20.82;100.00
24230;BME280;12362;50.004;8.006;2022-09-09T09:37:40;100072.59;;;21.80;100.00
24230;BME280;12362;50.004;8.006;2022-09-09T09:40:20;100058.31;;;21.38;100.00
24230;BME280;12362;50.004;8.006;2022-09-09T09:43:16;100069.59;;;20.59;100.00
24230;BME280;12362;50.004;8.006;2022-09-09T09:45:46;100062.72;;;21.64;100.00
24230;BME280;12362;50.004;8.006;2022-09-09T09:48:13;100068.53;;;21.06;100.00
24230;BME280;12362;50.004;8.006;2022-09-09T09:50:56;100057.25;;;21.13;100.00
24230;BME280;12362;50.004;8.006;2022-09-09T09:53:25;100066.78;;;21.41;100.00
24230;BME280;12362;50.004;8.006;2022-09-09T09:55:59;100062.50;;;22.00;100.00
24230;BME280;12362;50.004;8.006;2022-09-09T09:58:29;100051.28;;;22.24;100.00
24230;BME280;12362;50.004;8.006;2022-09-09T10:00:57;100048.78;;;23.62;100.00
24230;BME280;12362;50.004;8.006;2022-09-09T10:03:33;100040.63;;;24.19;100.00
24230;BME280;12362;50.004;8.006;2022-09-09T10:06:03;100034.19;;;24.14;100.00
24230;BME280;12362;50.004;8.006;2022-09-09T10:08:34;100033.50;;;23.24;100.00
24230;BME280;12362;50.004;8.006;2022-09-09T10:11:03;100029.50;;;22.63;100.00
24230;BME280;12362;50.004;8.006;2022-09-09T10:17:29;100033.41;;;21.75;100.00
24230;BME280;12362;50.004;8.006;2022-09-09T10:19:37;100033.00;;;22.13;100.00
24230;BME280;12362;50.004;8.006;2022-09-09T10:22:31;100018.03;;;22.55;100.00
24230;BME280;12362;50.004;8.006;2022-09-09T10:28:23;100012.94;;;24.22;98.56
24230;BME280;12362;50.004;8.006;2022-09-09T10:36:10;100003.44;;;24.27;100.00
24230;BME280;12362;50.004;8.006;2022-09-09T10:38:40;100001.19;;;25.46;92.51
24230;BME280;12362;50.004;8.006;2022-09-09T10:41:42;100000.13;;;24.25;97.39
24230;BME280;12362;50.004;8.006;2022-09-09T10:44:29;100008.81;;;23.24;100.00
24230;BME280;12362;50.004;8.006;2022-09-09T10:47:24;100014.63;;;23.19;100.00
24230;BME280;12362;50.004;8.006;2022-09-09T10:50:20;100016.28;;;23.20;100.00
24230;BME280;12362;50.004;8.006;2022-09-09T10:56:10;99997.50;;;24.72;100.00
24230;BME280;12362;50.004;8.006;2022-09-09T10:58:42;100004.47;;;24.10;93.10
24230;BME280;12362;50.004;8.006;2022-09-09T11:01:40;99998.06;;;23.89;98.96
24230;BME280;12362;50.004;8.006;2022-09-09T11:04:42;99994.94;;;23.62;99.37
24230;BME280;12362;50.004;8.006;2022-09-09T11:07:24;99994.59;;;23.96;96.61
24230;BME280;12362;50.004;8.006;2022-09-09T11:09:59;99994.88;;;24.09;88.73
24230;BME280;12362;50.004;8.006;2022-09-09T11:12:30;99993.78;;;23.80;98.27
24230;BME280;12362;50.004;8.006;2022-09-09T11:18:13;100008.44;;;23.03;100.00
24230;BME280;12362;50.004;8.006;2022-09-09T11:20:45;100010.88;;;22.47;100.00
24230;BME280;12362;50.004;8.006;2022-09-09T11:23:24;99999.34;;;22.56;100.00
24230;BME280;12362;50.004;8.006;2022-09-09T11:25:55;100005.63;;;22.22;100.00
24230;BME280;12362;50.004;8.006;2022-09-09T11:28:53;100010.47;;;22.01;100.00
24230;BME280;12362;50.004;8.006;2022-09-09T11:31:46;100007.75;;;21.93;100.00
24230;BME280;12362;50.004;8.006;2022-09-09T11:34:30;100012.88;;;22.20;100.00
24230;BME280;12362;50.004;8.006;2022-09-09T11:42:37;100039.84;;;21.73;100.00
24230;BME280;12362;50.004;8.006;2022-09-09T11:45:24;100033.31;;;21.32;100.00
24230;BME280;12362;50.004;8.006;2022-09-09T11:47:59;100029.69;;;21.16;100.00
24230;BME280;12362;50.004;8.006;2022-09-09T11:53:05;100039.88;;;20.94;100.00
24230;BME280;12362;50.004;8.006;2022-09-09T11:55:34;100046.03;;;21.02;100.00
24230;BME280;12362;50.004;8.006;2022-09-09T11:58:04;100055.75;;;20.84;100.00
24230;BME280;12362;50.004;8.006;2022-09-09T12:00:42;100058.84;;;20.70;100.00
24230;BME280;12362;50.004;8.006;2022-09-09T12:03:33;100063.09;;;20.54;100.00
24230;BME280;12362;50.004;8.006;2022-09-09T12:08:51;100050.97;;;20.61;100.00
24230;BME280;12362;50.004;8.006;2022-09-09T12:11:25;100037.41;;;21.62;100.00
24230;BME280;12362;50.004;8.006;2022-09-09T12:13:59;100050.41;;;21.73;100.00
24230;BME280;12362;50.004;8.006;2022-09-09T12:16:37;100051.56;;;21.96;100.00
24230;BME280;12362;50.004;8.006;2022-09-09T12:19:26;100043.69;;;21.78;100.00
24230;BME280;12362;50.004;8.006;2022-09-09T12:22:07;100039.22;;;23.04;100.00
24230;BME280;12362;50.004;8.006;2022-09-09T12:25:06;100041.69;;;23.79;100.00
24230;BME280;12362;50.004;8.006;2022-09-09T12:27:42;100038.84;;;23.56;100.00
24230;BME280;12362;50.004;8.006;2022-09-09T12:30:15;100022.94;;;24.58;100.00
24230;BME280;12362;50.004;8.006;2022-09-09T12:32:42;100031.97;;;24.33;100.00
24230;BME280;12362;50.004;8.006;2022-09-09T12:35:20;100040.00;;;22.89;100.00
24230;BME280;12362;50.004;8.006;2022-09-09T12:37:58;100025.75;;;23.71;100.00
24230;BME280;12362;50.004;8.006;2022-09-09T12:40:32;100015.50;;;24.54;100.00
24230;BME280;12362;50.004;8.006;2022-09-09T12:43:21;100017.50;;;24.44;100.00
24230;BME280;12362;50.004;8.006;2022-09-09T12:45:53;100013.84;;;24.91;100.00
24230;BME280;12362;50.004;8.006;2022-09-09T12:48:30;100004.88;;;24.84;98.46
24230;BME280;12362;50.004;8.006;2022-09-09T12:50:58;100005.59;;;24.32;98.48
24230;BME280;12362;50.004;8.006;2022-09-09T12:53:45;100009.19;;;24.85;94.88
24230;BME280;12362;50.004;8.006;2022-09-09T12:56:22;100003.22;;;24.83;90.71
24230;BME280;12362;50.004;8.006;2022-09-09T12:58:51;100010.19;;;24.92;92.92
24230;BME280;12362;50.004;8.006;2022-09-09T13:01:33;100000.88;;;25.41;89.36
24230;BME280;12362;50.004;8.006;2022-09-09T13:04:01;100004.00;;;26.03;89.91
24230;BME280;12362;50.004;8.006;2022-09-09T13:06:30;100003.53;;;25.41;89.14
24230;BME280;12362;50.004;8.006;2022-09-09T13:09:01;100012.19;;;24.52;92.57
24230;BME280;12362;50.004;8.006;2022-09-09T13:11:36;100010.59;;;24.19;96.94
24230;BME280;12362;50.004;8.006;2022-09-09T13:14:04;100008.03;;;23.79;100.00
24230;BME280;12362;50.004;8.006;2022-09-09T13:16:36;100008.47;;;23.75;100.00
24230;BME280;12362;50.004;8.006;2022-09-09T13:19:09;100005.94;;;23.01;100.00
24230;BME280;12362;50.004;8.006;2022-09-09T13:21:39;100004.88;;;22.37;100.00
24230;BME280;12362;50.004;8.006;2022-09-09T13:24:31;100019.69;;;21.97;100.00
24230;BME280;12362;50.004;8.006;2022-09-09T13:27:04;100031.88;;;21.38;100.00
24230;BME280;12362;50.004;8.006;2022-09-09T13:29:33;100024.41;;;21.33;100.00
24230;BME280;12362;50.004;8.006;2022-09-09T13:32:15;100025.16;;;21.26;100.00
24230;BME280;12362;50.004;8.006;2022-09-09T13:34:53;100028.56;;;21.53;100.00
24230;BME280;12362;50.004;8.006;2022-09-09T13:37:35;100020.44;;;21.12;100.00
24230;BME280;12362;50.004;8.006;2022-09-09T13:40:03;100028.47;;;20.93;100.00
24230;BME280;12362;50.004;8.006;2022-09-09T13:42:33;100031.66;;;20.70;100.00
24230;BME280;12362;50.004;8.006;2022-09-09T13:45:04;100037.28;;;20.84;100.00
24230;BME280;12362;50.004;8.006;2022-09-09T13:47:35;100043.88;;;20.34;100.00
24230;BME280;12362;50.004;8.006;2022-09-09T13:50:26;100037.03;;;20.05;100.00
24230;BME280;12362;50.004;8.006;2022-09-09T13:52:59;100034.56;;;19.66;100.00
24230;BME280;12362;50.004;8.006;2022-09-09T13:55:26;100032.38;;;19.52;100.00
24230;BME280;12362;50.004;8.006;2022-09-09T13:57:55;100019.28;;;19.88;100.00
24230;BME280;12362;50.004;8.006;2022-09-09T14:00:22;100028.13;;;20.15;100.00
24230;BME280;12362;50.004;8.006;2022-09-09T14:02:48;100022.63;;;20.63;100.00
24230;BME280;12362;50.004;8.006;2022-09-09T14:05:14;100013.06;;;20.89;100.00
24230;BME280;12362;50.004;8.006;2022-09-09T14:07:43;100014.50;;;20.74;100.00
24230;BME280;12362;50.004;8.006;2022-09-09T14:10:11;100008.03;;;21.12;100.00
24230;BME280;12362;50.004;8.006;2022-09-09T14:12:39;100001.59;;;21.50;100.00
24230;BME280;12362;50.004;8.006;2022-09-09T14:15:06;99998.78;;;21.43;100.00
24230;BME280;12362;50.004;8.006;2022-09-09T14:17:33;99997.19;;;22.26;100.00
24230;BME280;12362;50.004;8.006;2022-09-09T14:20:00;99995.13;;;22.79;100.00
24230;BME280;12362;50.004;8.006;2022-09-09T14:22:26;100001.47;;;23.02;100.00
24230;BME280;12362;50.004;8.006;2022-09-09T14:24:53;100009.34;;;22.11;100.00
24230;BME280;12362;50.004;8.006;2022-09-09T14:27:22;99990.44;;;23.30;100.00
24230;BME280;12362;50.004;8.006;2022-09-09T14:29:50;99992.63;;;24.37;100.00
24230;BME280;12362;50.004;8.006;2022-09-09T14:32:17;100001.91;;;23.79;100.00
24230;BME280;12362;50.004;8.006;2022-09-09T14:34:44;99999.41;;;23.77;100.00
24230;BME280;12362;50.004;8.006;2022-09-09T14:37:09;100005.34;;;23.23;100.00
24230;BME280;12362;50.004;8.006;2022-09-09T14:39:35;100000.06;;;23.63;100.00